Hassan Mabkhout

Olheiro - Al Shabab
25 Jun 2028
Domingo
Processo

Personalidade

Adaptabilidade (18) Ambição (1) Controvérsia (6) Lealdade (19) Pressão (20) Profissionalismo (8) Espírito Esportivo (3) Temperamento (14)

Perfil

Estilo de Treinamento Democrático
Licença Continental A
Determinação 10
Gestão de Pessoas 11
Motivação 11
Disciplina 12
Satisfação no Trabalho
100%
Fadiga
0%
Função Olheiro
Salário 69.1K p/s
Contrato 14.03.2030

Desempenho

Comportamento Bom
Eficácia do Treinamento
49%
Desenvolvimento do Jogador
55%
Prevenção de Lesões
35%
Implementação Tática
50%

Eventos Recentes

Avaliou um jogador agora
Participou de uma reunião de recrutamento agora
Recomendou um alvo de transferência agora
Participou de uma reunião de recrutamento 7d atrás
Recomendou um alvo de transferência 7d atrás
Recomendou um alvo de transferência 7d atrás
Apresentou um dossiê à direção 7d atrás
Recomendou um alvo de transferência 14d atrás

Monitorando agora

104
Jogador Clube Status Habilidade Confiança Observado Última observação Último voto
Favour Ogbu Al Wahda Ativo 122 / 123 62% 1 19.06.2028 Aprovar
Fabrizio Cavegn Swindon Town Ativo 128 / 116 40% 1 19.06.2028 -
Thomas Schlupp BA All Stars Ativo 101 / 105 40% 1 19.06.2028 -
Riquelme Thompson-Jones Accrington Stanley Ativo 120 / 117 40% 2 04.06.2028 -
Josh King Newcastle United Ativo 149 / 154 40% 1 04.06.2028 -
Mohamed Bendary ENPPI Ativo 88 / 92 40% 1 03.06.2028 -
Nicolò Moranduzzo Renate Ativo 84 / 102 40% 1 01.06.2028 -
Mansour Saleh Al Wahda Ativo 97 / 104 62% 1 24.01.2028 Aprovar
Ismaïla Sonko Al Fujairah Ativo 93 / 99 58% 1 21.06.2027 -
Mohamadou Kanté Crawley Town Ativo 120 / 128 40% 1 30.05.2027 -
Abdennour Iheb Belhocini JS Kabylie Ativo 110 / 111 40% 3 28.05.2027 -
Peter Olayinka Al-Wehda Ativo 130 / 117 40% 1 28.05.2027 -
Khalid Al-Ghannam Al-Ettifaq Ativo 119 / 120 40% 2 27.05.2027 -
Jack Moylan Lincoln City Ativo 104 / 107 40% 1 25.05.2027 -
Oswin Appollis Orlando Pirates Ativo 136 / 118 40% 5 24.05.2027 -
Joel Bagan Cardiff City Ativo 108 / 118 40% 1 24.05.2027 -
Ryan Hedges Derby County Ativo 114 / 115 40% 3 23.05.2027 -
Sonny Carey Charlton Athletic Ativo 125 / 114 40% 1 23.05.2027 -
Paddy Lane Reading Ativo 100 / 109 40% 1 22.05.2027 -
Tyreece Campbell Charlton Athletic Ativo 114 / 127 40% 1 22.05.2027 -
Ahmed Al-Nakhli Al-Hazem Ativo 113 / 108 40% 7 21.05.2027 -
Billal Messaoudi JS Kabylie Ativo 123 / 111 40% 1 19.05.2027 -
Mohammad Mehdi Mohebi Persepolis Ativo 129 / 111 40% 1 14.05.2027 -
Declan Frith Peterborough United Ativo 116 / 111 40% 1 12.05.2027 -
Atsuki Ito Bolton Wanderers Ativo 129 / 123 40% 1 12.05.2027 -
Max Conway Bolton Wanderers Ativo 109 / 116 40% 1 11.05.2027 -
Ar'jany Martha Rotherham United Ativo 118 / 111 40% 1 09.05.2027 -
Serginho Al Wasl Ativo 125 / 128 40% 6 08.05.2027 -
Liam Thompson Mansfield Town Ativo 120 / 120 40% 1 08.05.2027 -
Aaron Morley Wycombe Wanderers Ativo 114 / 110 40% 1 08.05.2027 -
Cian Ashford Cardiff City Ativo 117 / 122 40% 1 08.05.2027 -
Alex Robertson Cardiff City Ativo 120 / 118 40% 1 05.05.2027 -
Sheyi Ojo Crewe Alexandra Ativo 102 / 104 40% 2 03.05.2027 -
Gastón Álvarez Al-Qadisiyah Ativo 127 / 134 40% 3 02.05.2027 -
James Furlong Walsall Ativo 102 / 103 40% 1 02.05.2027 -
George Earthy Reading Ativo 108 / 128 40% 1 27.04.2027 -
Naoufel Khacef CR Belouizdad Ativo 128 / 112 40% 1 27.04.2027 -
Lukáš Haraslín Al-Fateh Ativo 143 / 135 40% 1 26.04.2027 -
Moussa Baradji Blackburn Rovers Ativo 125 / 115 40% 1 25.04.2027 -
Loreintz Rosier Al-Hazem Ativo 118 / 122 40% 3 24.04.2027 -
Leandro Antunes Al-Riyadh Ativo 124 / 120 40% 1 20.04.2027 -
Aaron Collins Milton Keynes Dons Ativo 115 / 115 40% 1 14.04.2027 -
Joseph Hungbo Wigan Athletic Ativo 101 / 109 40% 1 14.04.2027 -
Bonheur Mugisha Al-Hazem Ativo 109 / 109 40% 2 12.04.2027 -
Semelo Gueï JS Saoura Ativo 103 / 102 40% 1 12.04.2027 -
Abdulaziz Al-Harbi Al-Hazem Ativo 102 / 106 40% 2 08.04.2027 -
Andre Dozzell Bradford City Ativo 118 / 121 40% 1 08.04.2027 -
Musab Al-Juwayr Al-Qadisiyah Ativo 138 / 128 40% 2 07.04.2027 -
Nathan Moriah-Welsh Mansfield Town Ativo 104 / 113 40% 2 07.04.2027 -
Patrick Maswanganyi Orlando Pirates Ativo 117 / 122 40% 1 02.04.2027 -
Bongani Zungu Ajax Cape Town Ativo 112 / 129 40% 3 01.04.2027 -
Georgie Gent Barnsley Ativo 105 / 108 40% 1 01.04.2027 -
Mohamed Réda Hamidi JS Kabylie Ativo 102 / 111 40% 1 29.03.2027 -
Mohamed Zoungrana MC Alger Ativo 124 / 110 40% 1 27.03.2027 -
Merwane Khelif MC Alger Ativo 121 / 105 40% 2 21.03.2027 -
Malik Mothersille Stockport County Ativo 121 / 112 40% 1 20.03.2027 -
Óscar Al-Diriyah Ativo 128 / 131 40% 1 20.03.2027 -
Charlie Webster Burton Albion Ativo 119 / 122 40% 1 19.03.2027 -
Mohammed Abu Al-Shamat Al-Qadisiyah Ativo 131 / 119 40% 5 18.03.2027 -
Faisal Al-Ghamdi Al-Ittihad Ativo 117 / 124 40% 1 16.03.2027 -
Houssemeddine Ghacha USM Alger Ativo 97 / 103 40% 1 13.03.2027 -
Lewis Bate Stockport County Ativo 122 / 119 40% 1 11.03.2027 -
Jack Currie Oxford United Ativo 122 / 125 40% 1 11.03.2027 -
Turki Al-Ammar Al-Qadisiyah Ativo 116 / 117 40% 3 10.03.2027 -
Angelo Fulgini Al-Khaleej Ativo 118 / 127 40% 1 07.03.2027 -
Ethan Pye Stockport County Ativo 123 / 123 40% 1 05.03.2027 -
Faisal Obaid Al Shaab Ativo 127 / 114 40% 1 04.03.2027 -
Yacine Adli Al-Shabab Ativo 131 / 131 40% 4 02.03.2027 -
Mohau Nkota Al-Ettifaq Ativo 119 / 122 40% 4 26.02.2027 -
Ukeme Williams Al-Njoom Ativo 98 / 89 40% 1 22.02.2027 -
Ziyad Al-Johani Al-Ahli Ativo 125 / 119 40% 2 09.02.2027 -
Adel Bouzida Paradou Ativo 97 / 102 40% 1 09.02.2027 -
Marouan Azarkan Al Nasr Ativo 124 / 126 40% 1 06.02.2027 -
Bradley Zwane SuperSport United Ativo 128 / 123 40% 2 23.12.2026 -
Armstrong Oko-Flex Levski Ativo 114 / 125 40% 1 20.12.2026 -
Marcelo Allende Mamelodi Sundowns Ativo 122 / 137 40% 2 17.12.2026 -
Valentin Atangana Al-Ahli Ativo 127 / 131 40% 2 13.12.2026 Mais informações
Aiman Yahya Al-Nassr Ativo 108 / 111 40% 2 27.11.2026 -
Younes El Bahraoui Al-Taawoun Ativo 106 / 118 40% 1 21.11.2026 -
Renato Tapia Al Wasl Ativo 127 / 138 40% 1 18.11.2026 -
Imad Riahi Najran Ativo 112 / 102 40% 2 16.11.2026 -
Reda Khadra Qarabag Ativo 145 / 140 40% 2 11.11.2026 -
Merih Demiral Al-Ahli Ativo 140 / 130 40% 1 02.11.2026 -
Ali Majrashi Al-Ahli Ativo 122 / 121 40% 1 29.10.2026 -
Mihai Lixandru Al-Fateh Ativo 107 / 115 40% 1 28.10.2026 -
Moteb Al-Harbi Al-Hilal Ativo 118 / 122 40% 3 23.10.2026 -
Matthias Seidl Rapid Wien Ativo 126 / 124 40% 1 22.10.2026 -
Mohammed Al-Qahtani Al-Qadisiyah Ativo 121 / 110 40% 2 20.10.2026 -
Muhannad Al-Shanqiti Al-Ittihad Ativo 110 / 115 40% 2 14.10.2026 -
Marin Petkov Al-Taawoun Ativo 118 / 119 40% 1 13.10.2026 -
Aboubacar Doumbia Al-Orobah Ativo 112 / 97 40% 1 11.10.2026 -
Nasser Al-Dawsari Al-Hilal Ativo 113 / 116 40% 1 28.09.2026 -
Wadhah Zaidi Hajer Ativo 99 / 93 40% 2 23.09.2026 -
Manu Morlanes Mallorca Ativo 139 / 140 40% 2 20.09.2026 -
Radhi Al-Otaibi Al-Ettifaq Ativo 117 / 105 40% 1 20.09.2026 -
Basil Al-Sayyali Al-Shabab Ativo 114 / 105 40% 1 14.09.2026 -
Ahmed Al-Ghamdi Al-Ittihad Ativo 104 / 101 40% 1 14.09.2026 -
Abdulmalik Al-Jaber Al-Nassr Ativo 104 / 101 40% 1 12.09.2026 -
Nawaf Bu Washl Al-Nassr Ativo 118 / 120 40% 1 12.09.2026 -
Abdullah Al-Khaibari Al-Nassr Ativo 125 / 121 40% 1 09.09.2026 -
Crysencio Summerville Al-Hilal Ativo 129 / 142 40% 1 09.09.2026 -
Saeed Baattia Al-Fateh Ativo 101 / 111 40% 1 08.09.2026 -
Ferland Mendy Real Madrid Ativo 155 / 141 40% 1 31.08.2026 -
Hugo Cuypers Monterrey Ativo 123 / 119 40% 1 01.08.2026 -